Latest Weather Observations for Coffs Harbour

IDN60801

Issued at 6:05 pm EST Thursday 2 October 2014 (issued every 30 minutes, with the page automatically refreshed every 10 minutes)

About weather observations | Map of weather stations | Latest weather observations for NSW | Other Formats
Station Details ID: 059040 Name: COFFS HARBOUR MO Lat: -30.31 Lon: 153.12 Height: 5.0 m
Data from the previous 72 hours. | See also: Recent months at Coffs Harbour
Date/Time
EST
Temp
°C
App
Temp
°C
Dew
Point
Rel
Hum
%
Delta-T
°C
Wind Press
QNH
hPa
Press
MSL
hPa
Rain
since 9 am
mm
Dir
 
Spd
km/h
Gust
km/h
Spd
kts
Gust
kts
02/06:00pm 17.8 14.6 10.0 60 4.1 N 17 24 9 13 1019.5 1019.6 0.0
02/05:30pm 18.3 15.4 9.8 57 4.5 NNE 15 20 8 11 1019.5 - 0.0
02/05:00pm 18.6 15.7 9.5 55 4.8 NE 15 20 8 11 1019.5 - 0.0
02/04:30pm 19.2 15.9 9.5 53 5.1 NE 17 24 9 13 1019.5 - 0.0
02/04:00pm 19.5 16.1 9.2 51 5.4 ENE 17 24 9 13 1019.3 - 0.0
02/03:30pm 19.5 15.7 9.0 50 5.5 ENE 19 30 10 16 1019.1 - 0.0
02/03:00pm 19.6 15.4 8.2 47 5.9 E 20 28 11 15 1019.3 1019.4 0.0
02/02:30pm 19.6 15.5 7.9 46 6.0 E 19 28 10 15 1019.6 - 0.0
02/02:00pm 19.9 15.7 8.3 47 6.0 E 20 28 11 15 1019.8 - 0.0
02/11:00am 19.7 15.5 5.9 40 6.8 SE 17 20 9 11 1022.1 - 0.0
02/10:30am 19.6 15.7 5.5 39 6.9 SSE 15 20 8 11 1022.5 - 0.0
02/10:00am 19.4 15.9 5.5 40 6.8 SSE 13 19 7 10 1022.9 - 0.0
02/09:30am 18.9 15.3 5.0 40 6.7 SSW 13 19 7 10 1023.1 - 0.0
02/09:00am 18.8 14.5 5.1 40 6.6 SW 17 24 9 13 1023.3 1023.4 0.0
02/08:30am 18.2 14.8 10.5 60 4.1 SW 19 26 10 14 1023.3 - 0.0
02/08:00am 17.5 13.2 5.2 44 5.9 SW 17 26 9 14 1023.1 - 0.0
02/07:30am 16.9 13.1 5.7 47 5.4 WSW 15 19 8 10 1023.1 - 0.0
02/07:00am 15.7 12.4 6.4 54 4.5 WSW 13 17 7 9 1022.9 - 0.0
02/06:30am 14.0 11.5 6.5 60 3.6 SSW 9 13 5 7 1022.7 - 0.0
02/06:00am 12.9 9.8 5.6 61 3.4 SW 11 13 6 7 1022.4 1022.5 0.0
02/05:30am 12.1 9.0 5.4 63 3.1 SW 11 15 6 8 1022.2 - 0.0
02/05:00am 12.7 9.6 5.6 62 3.3 SSW 11 13 6 7 1022.0 - 0.0
02/04:30am 13.3 10.1 5.1 57 3.8 WSW 11 15 6 8 1021.8 - 0.0
02/04:00am 13.3 9.7 5.1 57 3.8 WSW 13 15 7 8 1021.7 - 0.0
02/03:30am 13.9 10.3 4.8 54 4.2 WSW 13 17 7 9 1021.7 - 0.0
02/03:00am 13.9 9.9 4.8 54 4.2 WSW 15 19 8 10 1021.8 1021.9 0.0
02/02:30am 14.2 9.8 4.9 53 4.3 WSW 17 22 9 12 1021.9 - 0.0
02/02:00am 14.8 10.0 4.4 49 4.8 WSW 19 26 10 14 1021.9 - 0.0
02/01:30am 14.8 10.4 4.9 51 4.6 WSW 17 20 9 11 1022.0 - 0.0
02/01:00am 14.1 9.8 5.1 54 4.2 WSW 17 22 9 12 1022.3 - 0.0
02/12:30am 13.7 9.4 5.1 56 4.0 WSW 17 22 9 12 1022.5 - 0.0
02/12:00am 13.7 9.9 5.6 58 3.8 WSW 15 19 8 10 1022.6 1022.7 0.0
 
Date/Time
EST
Temp
°C
App
Temp
°C
Dew
Point
Rel
Hum
%
Delta-T
°C
Wind Press
QNH
hPa
Press
MSL
hPa
Rain
since 9 am
mm
Dir
 
Spd
km/h
Gust
km/h
Spd
kts
Gust
kts
01/11:30pm 14.1 10.1 4.8 53 4.3 SW 15 17 8 9 1022.5 - 0.0
01/11:00pm 14.4 10.8 5.2 54 4.3 WSW 13 19 7 10 1022.5 - 0.0
01/10:30pm 15.0 10.6 4.7 50 4.8 WSW 17 20 9 11 1022.7 - 0.0
01/10:00pm 14.9 11.0 5.3 52 4.5 WSW 15 22 8 12 1022.7 - 0.0
01/09:30pm 15.3 11.7 4.8 49 4.9 WSW 13 17 7 9 1022.6 - 0.0
01/09:00pm 15.4 11.1 5.2 50 4.8 SW 17 22 9 12 1022.3 1022.4 0.0
01/08:30pm 15.9 11.3 5.4 49 5.0 SW 19 26 10 14 1021.9 - 0.0
01/08:00pm 17.2 10.7 6.6 49 5.2 S 30 41 16 22 1021.4 - 0.0
01/07:30pm 17.5 9.8 5.5 45 5.8 S 35 48 19 26 1020.9 - 0.0
01/07:00pm 17.4 9.4 5.6 45 5.7 S 37 48 20 26 1020.3 - 0.0
01/06:30pm 17.6 9.7 4.5 42 6.2 S 35 52 19 28 1019.8 - 0.0
01/06:00pm 17.6 10.0 5.9 46 5.7 S 35 46 19 25 1019.2 1019.3 0.0
01/05:30pm 17.9 10.9 6.8 48 5.5 S 33 43 18 23 1018.7 - 0.0
01/05:00pm 18.5 10.3 5.0 41 6.5 S 37 52 20 28 1018.3 - 0.0
01/04:30pm 19.3 11.5 4.8 38 7.0 S 35 52 19 28 1017.8 - 0.0
01/04:00pm 19.8 11.8 5.6 39 7.0 S 37 50 20 27 1017.3 - 0.0
01/03:30pm 20.2 12.0 5.0 37 7.4 S 37 48 20 26 1017.0 - 0.0
01/03:00pm 20.6 12.8 6.5 40 7.1 S 37 50 20 27 1016.8 1016.9 0.0
01/02:30pm 21.1 14.6 9.0 46 6.4 S 33 44 18 24 1016.5 - 0.0
01/02:00pm 21.2 14.4 9.2 46 6.4 S 35 43 19 23 1016.3 - 0.0
01/01:30pm 21.3 15.3 10.2 49 6.0 S 32 39 17 21 1016.1 - 0.0
01/01:00pm 22.2 17.2 13.5 57 5.0 S 32 46 17 25 1015.9 - 0.0
01/12:30pm 21.8 17.7 13.9 61 4.6 S 28 35 15 19 1015.9 - 0.0
01/12:00pm 21.6 16.7 13.8 61 4.5 S 32 37 17 20 1015.7 1015.8 0.0
01/11:30am 22.1 18.3 14.6 62 4.4 S 28 39 15 21 1015.6 - 0.0
01/11:00am 22.4 18.2 14.6 61 4.6 S 30 41 16 22 1015.4 - 0.0
01/10:30am 23.3 18.1 15.5 61 4.7 S 37 52 20 28 1014.7 - 0.0
01/10:16am 24.8 18.4 14.3 52 6.2 S 41 59 22 32 1014.1 - 0.0
01/10:15am 27.4 19.6 11.0 36 9.3 S 43 59 23 32 1013.8 - 0.0
01/10:00am 30.2 25.2 3.7 18 13.5 SW 19 30 10 16 1013.1 - 0.0
01/09:30am 29.7 25.4 3.0 18 13.4 SW 15 22 8 12 1013.1 - 0.0
01/09:00am 29.6 26.0 4.9 21 12.8 WSW 13 20 7 11 1013.2 1013.3 0.0
01/08:30am 28.8 26.7 9.6 30 10.7 WNW 11 15 6 8 1013.3 - 0.0
01/08:00am 27.2 24.1 10.2 34 9.5 W 17 22 9 12 1013.3 - 0.0
01/07:30am 25.9 23.5 11.5 40 8.2 WNW 15 19 8 10 1013.0 - 0.0
01/07:00am 24.8 21.2 10.6 40 7.9 WNW 20 30 11 16 1012.7 - 0.0
01/06:30am 22.6 17.8 10.4 46 6.7 WNW 26 32 14 17 1012.7 - 0.0
01/06:00am 21.0 20.1 11.4 54 5.3 ENE 7 13 4 7 1012.4 1012.5 0.0
01/05:30am 19.0 18.7 14.3 74 2.7 E 9 15 5 8 1012.0 - 0.0
01/05:00am 19.5 16.6 13.0 66 3.7 NE 20 26 11 14 1011.5 - 0.0
01/04:30am 20.0 17.6 12.7 63 4.1 E 17 20 9 11 1011.5 - 0.0
01/04:00am 20.9 19.3 12.8 60 4.6 NNW 13 17 7 9 1010.9 - 0.0
01/03:30am 21.2 21.5 13.4 61 4.5 NNW 4 7 2 4 1010.7 - 0.0
01/03:00am 22.1 19.2 13.0 56 5.2 NW 20 28 11 15 1010.7 1010.8 0.0
01/02:30am 20.2 19.8 14.2 68 3.5 NNE 9 17 5 9 1010.8 - 0.0
01/02:00am 18.4 17.9 15.0 80 2.0 NE 11 15 6 8 1011.3 - 0.0
01/01:30am 16.2 15.6 14.6 90 0.9 NNE 11 15 6 8 1011.9 - 0.0
01/01:00am 16.7 17.2 15.0 90 1.0 N 6 7 3 4 1012.3 - 0.0
01/12:30am 17.3 16.9 15.1 87 1.3 NNE 11 13 6 7 1012.6 - 0.0
01/12:00am 17.6 17.0 15.6 88 1.2 N 13 17 7 9 1013.0 1013.1 0.0
 
Date/Time
EST
Temp
°C
App
Temp
°C
Dew
Point
Rel
Hum
%
Delta-T
°C
Wind Press
QNH
hPa
Press
MSL
hPa
Rain
since 9 am
mm
Dir
 
Spd
km/h
Gust
km/h
Spd
kts
Gust
kts
30/11:30pm 18.2 19.9 15.3 83 1.7 CALM 0 0 0 0 1013.6 - 0.0
30/11:00pm 19.0 19.2 14.7 76 2.5 E 7 9 4 5 1014.0 - 0.0
30/10:30pm 21.5 21.3 14.7 65 4.0 WNW 9 20 5 11 1014.2 - 0.0
30/10:00pm 22.8 21.8 13.5 55 5.4 NNW 11 15 6 8 1014.5 - 0.0
30/09:30pm 21.3 22.2 13.9 62 4.3 NNE 2 9 1 5 1015.0 - 0.0
30/09:00pm 19.3 21.2 15.8 80 2.1 CALM 0 0 0 0 1015.7 1015.8 0.0
30/08:30pm 20.7 18.8 15.3 71 3.2 NNE 19 24 10 13 1015.8 - 0.0
30/08:00pm 20.6 18.2 16.5 77 2.5 NNE 24 30 13 16 1015.8 - 0.0
30/07:30pm 20.7 19.0 16.2 75 2.7 NNE 20 32 11 17 1015.7 - 0.0
30/07:00pm 20.7 17.9 17.3 81 2.1 NE 28 33 15 18 1015.5 - 0.0
30/06:30pm 21.1 19.5 16.6 75 2.7 ENE 20 30 11 16 1015.2 - 0.0
30/06:00pm 21.4 19.4 16.4 73 3.0 NE 22 26 12 14 1014.6 1014.7 0.0
30/05:30pm 21.5 18.5 16.7 74 2.9 NE 28 37 15 20 1014.1 - 0.0
30/05:00pm 21.5 17.2 16.9 75 2.8 NE 35 48 19 26 1013.7 - 0.0
30/04:30pm 21.6 17.6 16.7 73 3.0 NE 33 44 18 24 1013.9 - 0.0
30/04:00pm 22.5 18.8 15.9 66 4.0 NNE 30 39 16 21 1014.1 - 0.0
30/03:30pm 22.8 18.5 15.8 64 4.2 NE 33 46 18 25 1013.7 - 0.0
30/03:00pm 24.6 19.6 16.2 59 5.1 NE 37 52 20 28 1013.8 1013.9 0.0
30/02:30pm 24.5 19.8 15.9 58 5.2 NE 35 48 19 26 1014.0 - 0.0
30/02:00pm 24.3 19.5 16.5 61 4.8 NE 37 50 20 27 1014.3 - 0.0
30/01:30pm 23.8 18.0 15.9 61 4.8 NE 41 52 22 28 1014.6 - 0.0
30/01:00pm 24.2 19.2 16.0 60 5.0 NNE 37 50 20 27 1015.1 - 0.0
30/12:30pm 24.1 19.5 17.0 64 4.4 NNE 37 52 20 28 1015.3 - 0.0
30/12:00pm 24.8 20.6 17.2 62 4.7 NE 35 46 19 25 1015.7 1015.8 0.0
30/11:30am 25.0 21.1 16.5 59 5.2 NE 32 41 17 22 1016.0 - 0.0
30/11:00am 25.2 21.9 17.0 60 5.1 NE 30 35 16 19 1016.3 - 0.0
30/10:30am 24.7 21.5 17.3 63 4.6 NNE 30 37 16 20 1016.9 - 0.0
30/10:00am 23.0 21.1 16.6 67 3.9 NNE 22 30 12 16 1017.5 - 0.0
30/09:30am 22.8 21.6 16.0 65 4.1 NE 17 20 9 11 1017.9 - 0.0
30/09:00am 22.5 22.1 15.3 63 4.3 NNE 11 15 6 8 1018.2 1018.3 0.0
30/08:30am 22.3 22.6 14.5 61 4.6 NNE 6 9 3 5 1018.3 - 0.0
30/08:00am 20.8 21.8 14.4 67 3.7 N 2 6 1 3 1018.4 - 0.0
30/07:30am 19.1 20.7 14.8 76 2.5 CALM 0 0 0 0 1018.3 - 0.0
30/07:00am 16.6 18.1 14.7 88 1.1 CALM 0 0 0 0 1018.3 - 0.0
30/06:30am 14.2 15.4 13.7 97 0.3 CALM 0 0 0 0 1018.0 - 0.0
30/06:00am 12.6 13.2 11.8 95 0.4 CALM 0 0 0 0 1017.7 1017.8 0.0
30/05:30am 12.2 12.6 11.1 93 0.6 CALM 0 4 0 2 1017.4 - 0.0
30/05:00am 12.4 11.6 11.8 96 0.3 NW 7 7 4 4 1017.1 - 0.0
30/04:30am 12.8 13.1 12.1 95 0.4 - 2 9 1 5 1017.0 - 0.0
30/04:13am 12.9 13.6 12.2 95 0.4 CALM 0 0 0 0 1016.9 - 0.0
30/04:00am 12.7 13.4 12.1 96 0.3 CALM 0 0 0 0 1016.9 - 0.0
30/03:52am 12.7 13.3 11.8 94 0.5 CALM 0 0 0 0 1016.8 - 0.0
30/03:30am 13.3 14.1 12.7 96 0.3 CALM 0 0 0 0 1016.6 - 0.0
30/03:00am 13.3 14.1 12.4 94 0.5 CALM 0 0 0 0 1016.7 1016.8 0.0
30/02:30am 13.5 14.4 13.0 97 0.3 CALM 0 0 0 0 1016.7 - 0.0
30/02:00am 13.8 14.8 13.1 96 0.4 CALM 0 0 0 0 1017.0 - 0.0
30/01:30am 14.2 14.1 13.3 94 0.5 S 6 9 3 5 1017.1 - 0.0
30/01:00am 14.8 14.3 13.9 94 0.5 NNE 9 11 5 6 1017.1 - 0.0
30/12:30am 15.4 14.7 14.2 92 0.7 NNE 11 11 6 6 1017.2 - 0.0
30/12:00am 15.7 15.1 14.6 93 0.6 NNE 11 13 6 7 1017.5 1017.6 0.0
 
Date/Time
EST
Temp
°C
App
Temp
°C
Dew
Point
Rel
Hum
%
Delta-T
°C
Wind Press
QNH
hPa
Press
MSL
hPa
Rain
since 9 am
mm
Dir
 
Spd
km/h
Gust
km/h
Spd
kts
Gust
kts
29/11:30pm 15.6 15.7 14.4 93 0.7 N 7 9 4 5 1017.6 - 0.0
29/11:00pm 16.7 17.2 15.0 90 1.0 NNW 6 9 3 5 1017.8 - 0.0
29/10:30pm 16.9 17.2 15.0 88 1.1 N 7 9 4 5 1018.1 - 0.0
29/10:00pm 16.8 16.8 15.1 90 1.0 NNW 9 13 5 7 1018.1 - 0.0
29/09:30pm 16.8 17.2 15.2 90 0.9 N 7 9 4 5 1018.1 - 0.0
29/09:00pm 16.9 17.3 15.2 90 1.0 NNE 7 9 4 5 1018.0 1018.1 0.0
29/08:30pm 17.6 18.2 15.2 86 1.4 N 6 7 3 4 1017.8 - 0.0
29/08:00pm 18.3 18.3 15.2 82 1.8 N 9 11 5 6 1017.7 - 0.0
29/07:30pm 18.7 19.2 15.6 82 1.8 NNE 7 9 4 5 1017.4 - 0.0
29/07:00pm 19.5 18.9 15.6 78 2.3 NNE 13 19 7 10 1017.0 - 0.0
29/06:30pm 20.0 19.1 15.8 77 2.5 NNE 15 19 8 10 1016.8 - 0.0

Other Formats:

Comma delimited format used in spreadsheet applications
http://www.bom.gov.au/fwo/IDN60801/IDN60801.94791.axf

JavaScript Object Notation format (JSON) in row-major order
http://www.bom.gov.au/fwo/IDN60801/IDN60801.94791.json